KIAB/IAB METAR and TAF weather

Enter ICAO airport designator
Station Type Date Time Source
KIAB METAR 2021/09/23 22:56 UTC NOAA

KIAB 232256Z AUTO 19016KT 10SM CLR 28/05 A2997 RMK AO2 SLP143 T02800049 $


Station Type Date Time Source
KIAB Decoded METAR 2021/09/23 22:56 UTC NOAA

McConnell Air Force Base, KS, United States (KIAB) 37-37N 097-16W
Sep 23, 2021 - 06:56 PM EDT / 2021.09.23 2256 UTC
Wind: from the S (190 degrees) at 18 MPH (16 KT):0
Visibility: 10 mile(s):0
Sky conditions: clear
Temperature: 82.4 F (28.0 C)
Dew Point: 40.8 F (4.9 C)
Relative Humidity: 22%
Pressure (altimeter): 29.97 in. Hg (1014 hPa)
ob: KIAB 232256Z AUTO 19016KT 10SM CLR 28/05 A2997 RMK AO2 SLP143 T02800049
cycle: 23

Station Type Date Time Source
KIAB TAF 2021/09/23 18:45 UTC NOAA

TAF KIAB 231800Z 2318/2424 19012G20KT 9999 SKC QNH2997INS
BECMG 2323/2324 18009KT 9999 SKC QNH2995INS
BECMG 2405/2406 17009KT 9999 BKN250 WS015/22040KT QNH2997INS
BECMG 2414/2415 21020G30KT 9999 FEW100 BKN150 BKN250 QNH2990INS
BECMG 2422/2423 05009KT 9999 FEW070 BKN150 QNH2990INS TX28/2320Z TN15/2411Z

Example: see airport list